createdAt,value
2018-01-11T00:01:23.665Z,5.60
2018-01-11T00:03:55.076Z,5.50
2018-01-11T00:06:26.600Z,5.50
2018-01-11T00:08:59.471Z,5.50
2018-01-11T00:11:32.261Z,5.50
2018-01-11T00:14:05.370Z,5.50
2018-01-11T00:16:39.660Z,5.50
2018-01-11T00:19:10.669Z,5.50
2018-01-11T00:21:41.757Z,5.50
2018-01-11T00:24:14.082Z,5.40
2018-01-11T00:26:46.820Z,5.30
2018-01-11T00:29:18.142Z,5.30
2018-01-11T00:31:50.881Z,5.30
2018-01-11T00:34:23.538Z,5.10
2018-01-11T00:36:55.206Z,5.10
2018-01-11T00:39:32.785Z,5.10
2018-01-11T00:42:06.012Z,5.00
2018-01-11T00:44:37.879Z,5.00
2018-01-11T00:47:10.088Z,5.00
2018-01-11T00:49:41.852Z,4.90
2018-01-11T00:52:14.147Z,4.90
2018-01-11T00:54:45.211Z,5.00
2018-01-11T00:57:16.893Z,5.00
2018-01-11T00:59:49.816Z,5.00
2018-01-11T01:02:21.324Z,5.00
2018-01-11T01:04:53.179Z,5.00
2018-01-11T01:07:24.987Z,5.00
2018-01-11T01:09:56.962Z,5.00
2018-01-11T01:12:28.144Z,4.90
2018-01-11T01:14:59.421Z,5.00
2018-01-11T01:17:30.659Z,5.00
2018-01-11T01:20:01.774Z,5.00
2018-01-11T01:22:33.238Z,5.00
2018-01-11T01:25:04.359Z,5.00
2018-01-11T01:27:36.242Z,5.00
2018-01-11T01:30:08.712Z,4.90
2018-01-11T01:32:39.441Z,4.90
2018-01-11T01:35:09.780Z,4.90
2018-01-11T01:37:40.839Z,4.90
2018-01-11T01:40:11.750Z,4.90
2018-01-11T01:42:43.041Z,4.90
2018-01-11T01:45:13.818Z,4.90
2018-01-11T01:47:44.942Z,4.90
2018-01-11T01:50:15.277Z,4.90
2018-01-11T01:52:47.069Z,4.90
2018-01-11T01:55:17.397Z,4.90
2018-01-11T01:57:48.043Z,4.90
2018-01-11T02:00:18.429Z,4.90
2018-01-11T02:02:48.844Z,5.00
2018-01-11T02:05:20.202Z,4.80
2018-01-11T02:07:50.817Z,4.80
2018-01-11T02:10:21.478Z,4.90
2018-01-11T02:12:52.088Z,4.80
2018-01-11T02:15:23.221Z,4.80
2018-01-11T02:17:54.097Z,4.70
2018-01-11T02:20:25.282Z,4.70
2018-01-11T02:22:55.746Z,4.70
2018-01-11T02:25:27.109Z,4.60
2018-01-11T02:27:57.465Z,4.60
2018-01-11T02:30:28.833Z,4.50
2018-01-11T02:33:00.136Z,4.50
2018-01-11T02:35:30.760Z,4.50
2018-01-11T02:38:02.047Z,4.50
2018-01-11T02:40:33.262Z,4.50
2018-01-11T02:43:04.120Z,4.40
2018-01-11T02:45:34.935Z,4.40
2018-01-11T02:48:06.185Z,4.30
2018-01-11T02:50:36.926Z,4.30
2018-01-11T02:53:07.858Z,4.30
2018-01-11T02:55:38.877Z,4.20
2018-01-11T03:01:14.176Z,4.00
2018-01-11T03:03:44.957Z,3.90
2018-01-11T03:06:15.549Z,3.70
2018-01-11T03:08:46.376Z,3.60
2018-01-11T03:11:19.508Z,3.50
2018-01-11T03:13:49.969Z,3.40
2018-01-11T03:16:20.373Z,3.30
2018-01-11T03:18:51.360Z,3.20
2018-01-11T03:21:22.579Z,3.00
2018-01-11T03:23:53.171Z,3.00
2018-01-11T03:26:23.524Z,2.90
2018-01-11T03:28:53.842Z,2.80
2018-01-11T03:31:24.446Z,2.70
2018-01-11T03:33:54.885Z,2.60
2018-01-11T03:36:25.357Z,2.50
2018-01-11T03:38:55.976Z,2.40
2018-01-11T03:41:26.569Z,2.40
2018-01-11T03:43:57.850Z,2.30
2018-01-11T03:46:28.705Z,2.30
2018-01-11T03:48:59.218Z,2.40
2018-01-11T03:51:29.770Z,2.30
2018-01-11T03:54:00.950Z,2.20
2018-01-11T03:56:31.523Z,2.20
2018-01-11T03:59:02.051Z,2.20
2018-01-11T04:01:32.890Z,2.20
2018-01-11T04:04:03.226Z,2.10
2018-01-11T04:06:33.533Z,2.00
2018-01-11T04:09:04.700Z,2.00
2018-01-11T04:11:36.356Z,2.00
2018-01-11T04:14:07.546Z,2.00
2018-01-11T04:16:38.654Z,2.00
2018-01-11T04:19:09.857Z,1.90
2018-01-11T04:21:40.880Z,1.90
2018-01-11T04:24:12.304Z,1.90
2018-01-11T04:26:42.872Z,1.90
2018-01-11T04:29:13.426Z,1.90
2018-01-11T04:31:45.572Z,1.90
2018-01-11T04:34:16.256Z,1.90
2018-01-11T04:36:46.794Z,1.90
2018-01-11T04:39:17.696Z,1.90
2018-01-11T04:41:49.329Z,1.90
2018-01-11T04:44:22.248Z,1.90
2018-01-11T04:46:53.648Z,1.90
2018-01-11T04:49:24.177Z,1.80
2018-01-11T04:51:54.978Z,1.80
2018-01-11T04:54:25.876Z,1.70
2018-01-11T04:56:56.531Z,1.70
2018-01-11T04:59:27.504Z,1.70
2018-01-11T05:01:58.498Z,1.70
2018-01-11T05:04:29.148Z,1.70
2018-01-11T05:06:59.916Z,1.90
2018-01-11T05:09:30.493Z,1.70
2018-01-11T05:12:01.351Z,1.60
2018-01-11T05:14:32.116Z,1.60
2018-01-11T05:17:04.697Z,1.50
2018-01-11T05:19:35.639Z,1.50
2018-01-11T05:22:08.899Z,1.50
2018-01-11T05:24:40.295Z,1.50
2018-01-11T05:27:10.972Z,1.40
2018-01-11T05:29:41.660Z,1.40
2018-01-11T05:32:12.299Z,1.40
2018-01-11T05:34:46.395Z,1.40
2018-01-11T05:37:17.735Z,1.40
2018-01-11T05:39:52.196Z,1.40
2018-01-11T05:42:25.009Z,1.30
2018-01-11T05:44:57.393Z,1.40
2018-01-11T05:47:32.635Z,1.30
2018-01-11T05:50:03.328Z,1.20
2018-01-11T05:52:33.901Z,1.30
2018-01-11T05:55:05.713Z,1.20
2018-01-11T05:57:36.554Z,1.10
2018-01-11T06:00:07.327Z,1.10
2018-01-11T06:02:38.395Z,1.20
2018-01-11T06:05:09.006Z,1.20
2018-01-11T06:07:42.119Z,1.10
2018-01-11T06:10:12.715Z,1.10
2018-01-11T06:12:43.463Z,1.10
2018-01-11T06:15:17.820Z,1.20
2018-01-11T06:17:48.648Z,1.20
2018-01-11T06:20:23.722Z,1.20
2018-01-11T06:22:54.280Z,1.10
2018-01-11T06:25:24.837Z,1.20
2018-01-11T06:27:56.693Z,1.10
2018-01-11T06:30:27.471Z,1.10
2018-01-11T06:32:58.161Z,1.10
2018-01-11T06:35:28.800Z,1.10
2018-01-11T06:37:59.440Z,1.10
2018-01-11T06:40:30.061Z,1.00
2018-01-11T06:43:01.134Z,1.00
2018-01-11T06:45:31.801Z,1.00
2018-01-11T06:48:03.092Z,1.10
2018-01-11T06:50:34.876Z,1.10
2018-01-11T06:53:05.510Z,1.20
2018-01-11T06:55:36.065Z,1.10
2018-01-11T06:58:07.199Z,1.20
2018-01-11T07:00:38.933Z,1.10
2018-01-11T07:03:09.627Z,1.10
2018-01-11T07:05:40.616Z,1.00
2018-01-11T07:08:13.096Z,1.00
2018-01-11T07:10:44.504Z,0.90
2018-01-11T07:13:20.393Z,0.90
2018-01-11T07:15:51.658Z,0.90
2018-01-11T07:18:22.304Z,0.90
2018-01-11T07:20:52.839Z,0.90
2018-01-11T07:23:23.380Z,0.90
2018-01-11T07:25:54.557Z,1.10
2018-01-11T07:28:25.179Z,1.00
2018-01-11T07:30:55.707Z,0.90
2018-01-11T07:34:42.449Z,0.90
2018-01-11T07:37:13.082Z,0.90
2018-01-11T07:39:43.733Z,0.90
2018-01-11T07:42:14.239Z,0.90
2018-01-11T07:44:45.437Z,0.90
2018-01-11T07:47:17.407Z,0.90
2018-01-11T07:49:48.140Z,0.90
2018-01-11T07:52:19.074Z,0.90
2018-01-11T07:54:51.112Z,1.00
2018-01-11T07:57:22.014Z,1.00
2018-01-11T08:00:14.325Z,1.10
2018-01-11T08:03:04.364Z,1.10
2018-01-11T08:08:38.143Z,1.20
2018-01-11T08:11:16.952Z,1.20
2018-01-11T08:13:47.915Z,1.20
2018-01-11T08:16:26.286Z,1.20
2018-01-11T08:18:57.868Z,1.30
2018-01-11T08:21:28.760Z,1.30
2018-01-11T08:23:59.493Z,1.30
2018-01-11T08:26:30.107Z,1.30
2018-01-11T08:29:01.609Z,1.40
2018-01-11T08:31:37.367Z,1.40
2018-01-11T08:34:47.286Z,1.40
2018-01-11T08:37:20.539Z,1.40
2018-01-11T08:39:59.356Z,1.40
2018-01-11T08:42:30.905Z,1.50
2018-01-11T08:45:01.531Z,1.60
2018-01-11T08:47:32.443Z,1.60
2018-01-11T08:50:06.402Z,1.60
2018-01-11T08:52:43.526Z,1.60
2018-01-11T08:55:15.836Z,1.60
2018-01-11T08:57:46.676Z,1.70
2018-01-11T09:00:20.659Z,1.80
2018-01-11T09:02:51.409Z,1.80
2018-01-11T09:05:24.191Z,1.90
2018-01-11T09:07:55.023Z,1.80
2018-01-11T09:10:25.664Z,1.80
2018-01-11T09:12:56.646Z,1.90
2018-01-11T09:15:27.224Z,1.80
2018-01-11T09:17:57.819Z,1.90
2018-01-11T09:20:28.369Z,1.90
2018-01-11T09:23:00.430Z,1.90
2018-01-11T09:25:31.825Z,1.90
2018-01-11T09:28:02.387Z,1.90
2018-01-11T09:30:34.152Z,1.90
2018-01-11T09:33:05.267Z,1.90
2018-01-11T09:35:35.829Z,1.90
2018-01-11T09:38:08.068Z,1.90
2018-01-11T09:40:38.741Z,1.90
2018-01-11T09:43:10.908Z,1.90
2018-01-11T09:45:43.325Z,2.00
2018-01-11T09:48:14.209Z,1.90
2018-01-11T09:50:46.045Z,2.00
2018-01-11T09:53:18.666Z,2.00
2018-01-11T09:55:49.236Z,2.10
2018-01-11T09:58:20.303Z,2.10
2018-01-11T10:00:50.788Z,2.10
2018-01-11T10:03:21.272Z,2.20
2018-01-11T10:05:53.005Z,2.20
2018-01-11T10:08:23.545Z,2.20
2018-01-11T10:10:54.889Z,2.20
2018-01-11T10:13:25.627Z,2.30
2018-01-11T10:15:57.121Z,2.20
2018-01-11T10:18:27.707Z,2.20
2018-01-11T10:20:59.304Z,2.30
2018-01-11T10:23:29.762Z,2.30
2018-01-11T10:26:00.242Z,2.30
2018-01-11T10:28:31.392Z,2.30
2018-01-11T10:31:01.915Z,2.30
2018-01-11T10:33:32.375Z,2.40
2018-01-11T10:36:02.845Z,2.40
2018-01-11T10:38:34.822Z,2.50
2018-01-11T10:41:05.313Z,2.50
2018-01-11T10:43:35.916Z,2.50
2018-01-11T10:46:06.641Z,2.40
2018-01-11T10:48:37.123Z,2.50
2018-01-11T10:51:08.563Z,2.70
2018-01-11T10:53:39.052Z,2.80
2018-01-11T10:56:09.658Z,2.90
2018-01-11T10:58:40.469Z,2.90
2018-01-11T11:01:15.091Z,3.00
2018-01-11T11:03:45.600Z,3.10
2018-01-11T11:06:16.133Z,3.30
2018-01-11T11:08:47.430Z,3.30
2018-01-11T11:11:17.878Z,3.30
2018-01-11T11:13:48.378Z,3.30
2018-01-11T11:16:19.277Z,3.40
2018-01-11T11:18:50.529Z,3.40
2018-01-11T11:21:21.028Z,3.40
2018-01-11T11:23:51.867Z,3.30
2018-01-11T11:26:22.444Z,3.40
2018-01-11T11:28:52.975Z,3.50
2018-01-11T11:31:23.765Z,3.50
2018-01-11T11:33:55.171Z,3.50
2018-01-11T11:36:25.789Z,3.50
2018-01-11T11:38:56.532Z,3.50
2018-01-11T11:41:27.108Z,3.50
2018-01-11T11:43:58.713Z,3.70
2018-01-11T11:46:29.288Z,3.70
2018-01-11T11:49:00.690Z,3.90
2018-01-11T11:51:31.645Z,3.90
2018-01-11T11:54:02.200Z,3.90
2018-01-11T11:56:33.937Z,3.90
2018-01-11T11:59:04.571Z,3.90
2018-01-11T12:01:35.128Z,3.80
2018-01-11T12:04:05.916Z,3.70
2018-01-11T12:06:36.633Z,3.80
2018-01-11T12:09:07.204Z,3.80
2018-01-11T12:11:37.875Z,3.70
2018-01-11T12:14:08.746Z,3.70
2018-01-11T12:16:39.419Z,3.70
2018-01-11T12:19:11.109Z,3.70
2018-01-11T12:21:41.680Z,3.60
2018-01-11T12:24:12.240Z,3.80
2018-01-11T12:26:43.196Z,3.80
2018-01-11T12:29:13.776Z,3.80
2018-01-11T12:31:44.462Z,3.80
2018-01-11T12:34:15.431Z,3.80
2018-01-11T12:36:46.085Z,3.90
2018-01-11T12:39:17.429Z,3.70
2018-01-11T12:41:48.293Z,3.80
2018-01-11T12:44:19.771Z,3.80
2018-01-11T12:46:50.344Z,3.80
2018-01-11T12:49:21.104Z,3.80
2018-01-11T12:51:52.336Z,4.10
2018-01-11T12:54:23.596Z,4.10
2018-01-11T12:56:54.320Z,4.10
2018-01-11T12:59:25.597Z,4.30
2018-01-11T13:01:56.130Z,4.30
2018-01-11T13:04:26.868Z,4.30
2018-01-11T13:06:57.489Z,4.30
2018-01-11T13:09:28.120Z,4.20
2018-01-11T13:11:58.995Z,4.30
2018-01-11T13:14:29.576Z,4.30
2018-01-11T13:17:00.182Z,4.40
2018-01-11T13:19:30.758Z,4.40
2018-01-11T13:22:01.759Z,4.40
2018-01-11T13:24:32.375Z,4.30
2018-01-11T13:27:03.655Z,4.40
2018-01-11T13:29:34.585Z,4.40
2018-01-11T13:32:05.118Z,4.50
2018-01-11T13:34:35.646Z,4.50
2018-01-11T13:37:06.471Z,4.50
2018-01-11T13:39:37.209Z,4.50
2018-01-11T13:42:07.960Z,4.50
2018-01-11T13:44:38.859Z,4.50
2018-01-11T13:47:10.165Z,4.40
2018-01-11T13:49:40.834Z,4.40
2018-01-11T13:52:12.828Z,4.50
2018-01-11T13:54:43.563Z,4.50
2018-01-11T13:57:14.174Z,4.40
2018-01-11T13:59:44.772Z,4.50
2018-01-11T14:02:16.140Z,4.40
2018-01-11T14:04:46.807Z,4.40
2018-01-11T14:07:17.712Z,4.50
2018-01-11T14:09:48.267Z,4.40
2018-01-11T14:12:22.589Z,4.40
2018-01-11T14:14:53.908Z,4.50
2018-01-11T14:17:26.026Z,4.50
2018-01-11T14:19:58.364Z,4.50
2018-01-11T14:22:29.129Z,4.50
2018-01-11T14:24:59.804Z,4.40
2018-01-11T14:27:31.741Z,4.40
2018-01-11T14:30:02.578Z,4.40
2018-01-11T14:32:33.206Z,4.40
2018-01-11T14:35:06.307Z,4.40
2018-01-11T14:37:36.909Z,4.40
2018-01-11T14:40:07.885Z,4.30
2018-01-11T14:42:38.901Z,4.30
2018-01-11T14:45:09.741Z,4.40
2018-01-11T14:47:40.390Z,4.20
2018-01-11T14:50:11.826Z,4.30
2018-01-11T14:52:44.058Z,4.40
2018-01-11T14:55:14.621Z,4.30
2018-01-11T14:57:46.066Z,4.30
2018-01-11T15:00:18.326Z,4.40
2018-01-11T15:02:49.690Z,4.40
2018-01-11T15:05:20.293Z,4.40
2018-01-11T15:07:51.087Z,4.40
2018-01-11T15:10:21.941Z,4.40
2018-01-11T15:12:53.075Z,4.30
2018-01-11T15:15:23.740Z,4.20
2018-01-11T15:17:54.952Z,4.20
2018-01-11T15:20:25.526Z,4.10
2018-01-11T15:22:56.099Z,4.10
2018-01-11T15:25:27.008Z,4.20
2018-01-11T15:27:57.607Z,4.10
2018-01-11T15:30:29.236Z,4.10
2018-01-11T15:33:00.138Z,4.10
2018-01-11T15:35:30.733Z,4.10
2018-01-11T15:38:01.672Z,4.10
2018-01-11T15:40:32.316Z,4.10
2018-01-11T15:43:03.705Z,4.10
2018-01-11T15:45:40.246Z,4.10
2018-01-11T15:48:15.876Z,4.10
2018-01-11T15:50:47.642Z,4.10
2018-01-11T15:53:19.270Z,4.00
2018-01-11T15:55:50.750Z,4.00
2018-01-11T15:58:22.241Z,4.10
2018-01-11T16:00:52.993Z,4.10
2018-01-11T16:03:23.583Z,4.10
2018-01-11T16:05:54.378Z,4.10
2018-01-11T16:08:25.117Z,4.20
2018-01-11T16:10:56.469Z,4.10
2018-01-11T16:13:27.807Z,4.10
2018-01-11T16:15:59.636Z,4.00
2018-01-11T16:18:30.310Z,4.00
2018-01-11T16:21:02.287Z,4.00
2018-01-11T16:23:33.137Z,4.00
2018-01-11T16:26:03.926Z,4.00
2018-01-11T16:28:36.263Z,4.10
2018-01-11T16:31:07.448Z,4.10
2018-01-11T16:33:38.948Z,4.10
2018-01-11T16:36:09.742Z,4.10
2018-01-11T16:38:40.638Z,4.10
2018-01-11T16:41:12.250Z,4.10
2018-01-11T16:43:43.878Z,4.10
2018-01-11T16:46:14.660Z,4.00
2018-01-11T16:48:45.816Z,4.00
2018-01-11T16:51:16.577Z,4.00
2018-01-11T16:53:48.264Z,4.10
2018-01-11T16:56:19.107Z,4.10
2018-01-11T16:58:49.892Z,4.20
2018-01-11T17:01:21.472Z,4.20
2018-01-11T17:03:53.109Z,4.20
2018-01-11T17:06:23.949Z,4.20
2018-01-11T17:08:54.783Z,4.20
2018-01-11T17:11:26.550Z,4.10
2018-01-11T17:13:57.208Z,4.10
2018-01-11T17:16:27.969Z,4.10
2018-01-11T17:18:58.861Z,4.10
2018-01-11T17:21:36.083Z,4.10
2018-01-11T17:24:12.655Z,4.10
2018-01-11T17:26:44.225Z,4.30
2018-01-11T17:29:15.845Z,4.20
2018-01-11T17:31:46.725Z,4.20
2018-01-11T17:34:18.521Z,4.10
2018-01-11T17:36:49.401Z,4.10
2018-01-11T17:39:20.263Z,4.20
2018-01-11T17:41:51.854Z,4.20
2018-01-11T17:44:22.895Z,4.10
2018-01-11T17:46:53.887Z,4.10
2018-01-11T17:49:25.904Z,4.20
2018-01-11T17:51:56.737Z,4.20
2018-01-11T17:54:27.648Z,4.20
2018-01-11T17:56:59.327Z,4.30
2018-01-11T17:59:30.468Z,4.30
2018-01-11T18:02:01.463Z,4.30
2018-01-11T18:04:32.778Z,4.30
2018-01-11T18:07:03.699Z,4.40
2018-01-11T18:09:35.379Z,4.50
2018-01-11T18:12:07.316Z,4.40
2018-01-11T18:14:38.711Z,4.40
2018-01-11T18:17:10.728Z,4.40
2018-01-11T18:19:42.454Z,4.40
2018-01-11T18:22:13.485Z,4.40
2018-01-11T18:24:44.816Z,4.30
2018-01-11T18:27:16.928Z,4.30
2018-01-11T18:29:48.142Z,4.30
2018-01-11T18:32:19.452Z,4.40
2018-01-11T18:34:50.445Z,4.40
2018-01-11T18:37:21.569Z,4.30
2018-01-11T18:39:52.717Z,4.30
2018-01-11T18:42:24.077Z,4.20
2018-01-11T18:44:55.893Z,4.20
2018-01-11T18:47:26.856Z,4.20
2018-01-11T18:49:58.050Z,4.10
2018-01-11T18:52:33.182Z,4.10
2018-01-11T18:55:04.812Z,4.10
2018-01-11T18:57:36.730Z,4.20
2018-01-11T19:00:08.087Z,4.20
2018-01-11T19:02:40.600Z,4.30
2018-01-11T19:05:12.561Z,4.30
2018-01-11T19:07:44.029Z,4.40
2018-01-11T19:10:15.193Z,4.40
2018-01-11T19:12:46.979Z,4.30
2018-01-11T19:15:18.300Z,4.30
2018-01-11T19:17:50.727Z,4.30
2018-01-11T19:20:23.611Z,4.30
2018-01-11T19:22:54.827Z,4.20
2018-01-11T19:25:26.426Z,4.30
2018-01-11T19:27:58.584Z,4.20
2018-01-11T19:30:32.679Z,4.10
2018-01-11T19:33:05.849Z,4.10
2018-01-11T19:35:37.646Z,4.10
2018-01-11T19:38:10.063Z,4.10
2018-01-11T19:40:42.794Z,4.00
2018-01-11T19:43:13.738Z,4.00
2018-01-11T19:45:44.889Z,4.10
2018-01-11T19:48:15.922Z,4.10
2018-01-11T19:50:48.122Z,4.10
2018-01-11T19:53:20.514Z,4.10
2018-01-11T19:55:52.018Z,4.10
2018-01-11T19:58:23.508Z,4.10
2018-01-11T20:00:55.568Z,4.20
2018-01-11T20:03:26.751Z,4.20
2018-01-11T20:05:58.220Z,4.20
2018-01-11T20:08:29.981Z,4.10
2018-01-11T20:11:00.904Z,4.10
2018-01-11T20:13:31.771Z,4.10
2018-01-11T20:16:04.628Z,3.90
2018-01-11T20:18:36.849Z,4.00
2018-01-11T20:21:07.816Z,4.10
2018-01-11T20:23:39.484Z,4.00
2018-01-11T20:26:10.876Z,4.00
2018-01-11T20:28:42.955Z,4.00
2018-01-11T20:31:14.560Z,3.90
2018-01-11T20:33:45.479Z,3.90
2018-01-11T20:36:16.892Z,3.90
2018-01-11T20:38:48.304Z,3.80
2018-01-11T20:41:20.029Z,3.80
2018-01-11T20:43:51.046Z,3.80
2018-01-11T20:46:22.164Z,3.80
2018-01-11T20:48:53.021Z,3.80
2018-01-11T20:51:23.936Z,3.90
2018-01-11T20:53:55.772Z,3.90
2018-01-11T20:56:26.536Z,3.90
2018-01-11T20:58:58.171Z,3.80
2018-01-11T21:01:28.980Z,3.80
2018-01-11T21:03:59.802Z,3.80
2018-01-11T21:06:31.433Z,3.80
2018-01-11T21:09:02.294Z,3.80
2018-01-11T21:11:34.247Z,3.80
2018-01-11T21:14:05.407Z,3.80
2018-01-11T21:16:37.918Z,3.80
2018-01-11T21:19:08.927Z,3.80
2018-01-11T21:21:39.876Z,3.80
2018-01-11T21:24:11.202Z,3.80
2018-01-11T21:26:42.164Z,3.80
2018-01-11T21:29:13.837Z,3.70
2018-01-11T21:31:45.465Z,3.70
2018-01-11T21:34:16.362Z,3.80
2018-01-11T21:36:47.197Z,3.80
2018-01-11T21:39:18.382Z,3.80
2018-01-11T21:41:49.183Z,3.80
2018-01-11T21:44:20.193Z,3.80
2018-01-11T21:46:51.365Z,3.80
2018-01-11T21:49:23.364Z,3.80
2018-01-11T21:51:56.910Z,3.70
2018-01-11T21:54:30.082Z,3.80
2018-01-11T21:57:01.303Z,3.70
2018-01-11T21:59:32.332Z,3.70
2018-01-11T22:02:03.857Z,3.70
2018-01-11T22:04:35.586Z,3.70
2018-01-11T22:07:06.863Z,3.70
2018-01-11T22:09:37.959Z,3.70
2018-01-11T22:12:08.899Z,3.70
2018-01-11T22:14:40.547Z,3.70
2018-01-11T22:17:11.317Z,3.60
2018-01-11T22:19:42.537Z,3.70
2018-01-11T22:22:14.002Z,3.70
2018-01-11T22:24:44.974Z,3.80
2018-01-11T22:27:15.876Z,3.80
2018-01-11T22:29:47.051Z,3.80
2018-01-11T22:32:19.539Z,3.70
2018-01-11T22:34:50.336Z,3.70
2018-01-11T22:37:21.403Z,3.80
2018-01-11T22:39:52.123Z,3.80
2018-01-11T22:42:22.934Z,3.90
2018-01-11T22:44:54.673Z,3.80
2018-01-11T22:47:25.481Z,3.80
2018-01-11T22:49:56.288Z,3.80
2018-01-11T22:52:27.523Z,3.80
2018-01-11T22:54:58.917Z,3.70
2018-01-11T22:57:29.889Z,3.70
2018-01-11T23:00:01.245Z,3.70
2018-01-11T23:02:32.858Z,3.70
2018-01-11T23:05:03.761Z,3.70
2018-01-11T23:07:35.053Z,3.80
2018-01-11T23:10:06.052Z,3.90
2018-01-11T23:12:37.063Z,3.80
2018-01-11T23:15:08.531Z,3.70
2018-01-11T23:17:39.545Z,3.70
2018-01-11T23:20:10.830Z,3.70
2018-01-11T23:22:41.629Z,3.70
2018-01-11T23:25:13.486Z,3.60
2018-01-11T23:27:44.632Z,3.60
2018-01-11T23:30:15.668Z,3.60
2018-01-11T23:32:46.544Z,3.60
2018-01-11T23:35:18.677Z,3.60
2018-01-11T23:37:49.580Z,3.60
2018-01-11T23:40:20.627Z,3.70
2018-01-11T23:42:52.002Z,3.70
2018-01-11T23:45:22.964Z,3.70
